sensor_id;sensor_type;location;lat;lon;timestamp;P1;durP1;ratioP1;P2;durP2;ratioP2
49946;SDS011;35839;48.662;13.300;2023-02-28T05:38:02;11.13;;;6.90;;
49946;SDS011;35839;48.662;13.300;2023-02-28T05:40:27;15.67;;;8.43;;
49946;SDS011;35839;48.662;13.300;2023-02-28T05:42:53;13.03;;;6.53;;
49946;SDS011;35839;48.662;13.300;2023-02-28T05:45:18;15.03;;;7.03;;
49946;SDS011;35839;48.662;13.300;2023-02-28T05:47:43;13.47;;;8.60;;
49946;SDS011;35839;48.662;13.300;2023-02-28T05:50:09;14.07;;;8.53;;
49946;SDS011;35839;48.662;13.300;2023-02-28T05:52:35;14.30;;;6.97;;
49946;SDS011;35839;48.662;13.300;2023-02-28T05:55:01;14.07;;;6.97;;
49946;SDS011;35839;48.662;13.300;2023-02-28T05:57:27;11.37;;;7.40;;
49946;SDS011;35839;48.662;13.300;2023-02-28T05:59:52;11.23;;;6.60;;
49946;SDS011;35839;48.662;13.300;2023-02-28T06:02:17;12.97;;;6.87;;
49946;SDS011;35839;48.662;13.300;2023-02-28T06:04:43;14.10;;;7.17;;
49946;SDS011;35839;48.662;13.300;2023-02-28T06:07:09;12.77;;;7.30;;
49946;SDS011;35839;48.662;13.300;2023-02-28T06:09:35;11.10;;;7.03;;
49946;SDS011;35839;48.662;13.300;2023-02-28T06:12:01;10.40;;;6.93;;
49946;SDS011;35839;48.662;13.300;2023-02-28T06:14:28;10.87;;;6.40;;
49946;SDS011;35839;48.662;13.300;2023-02-28T06:16:56;13.03;;;7.13;;
49946;SDS011;35839;48.662;13.300;2023-02-28T06:19:21;14.30;;;7.97;;
49946;SDS011;35839;48.662;13.300;2023-02-28T06:21:48;13.37;;;7.30;;
49946;SDS011;35839;48.662;13.300;2023-02-28T06:24:17;14.80;;;7.80;;
49946;SDS011;35839;48.662;13.300;2023-02-28T06:26:42;13.97;;;7.40;;
49946;SDS011;35839;48.662;13.300;2023-02-28T06:29:07;15.07;;;7.83;;
49946;SDS011;35839;48.662;13.300;2023-02-28T06:31:33;11.87;;;6.90;;
49946;SDS011;35839;48.662;13.300;2023-02-28T06:33:58;13.33;;;7.57;;
49946;SDS011;35839;48.662;13.300;2023-02-28T06:36:23;11.87;;;7.20;;
49946;SDS011;35839;48.662;13.300;2023-02-28T06:38:48;14.77;;;7.63;;
49946;SDS011;35839;48.662;13.300;2023-02-28T06:41:19;12.37;;;7.30;;
49946;SDS011;35839;48.662;13.300;2023-02-28T06:43:45;13.10;;;7.17;;
49946;SDS011;35839;48.662;13.300;2023-02-28T06:46:11;18.37;;;8.13;;
49946;SDS011;35839;48.662;13.300;2023-02-28T06:48:38;15.20;;;7.97;;
49946;SDS011;35839;48.662;13.300;2023-02-28T06:51:05;14.57;;;7.83;;
49946;SDS011;35839;48.662;13.300;2023-02-28T06:53:32;16.13;;;8.67;;
49946;SDS011;35839;48.662;13.300;2023-02-28T06:55:58;14.27;;;8.03;;
49946;SDS011;35839;48.662;13.300;2023-02-28T06:58:23;14.43;;;8.03;;
49946;SDS011;35839;48.662;13.300;2023-02-28T07:00:50;20.57;;;7.93;;
49946;SDS011;35839;48.662;13.300;2023-02-28T07:03:17;14.80;;;7.93;;
49946;SDS011;35839;48.662;13.300;2023-02-28T07:05:43;12.37;;;7.40;;
49946;SDS011;35839;48.662;13.300;2023-02-28T07:08:09;20.37;;;8.20;;
49946;SDS011;35839;48.662;13.300;2023-02-28T07:10:36;16.47;;;8.67;;
49946;SDS011;35839;48.662;13.300;2023-02-28T07:13:03;13.77;;;8.00;;
49946;SDS011;35839;48.662;13.300;2023-02-28T07:15:29;13.00;;;7.70;;
49946;SDS011;35839;48.662;13.300;2023-02-28T07:17:55;15.20;;;7.87;;
49946;SDS011;35839;48.662;13.300;2023-02-28T07:20:21;13.30;;;7.63;;
49946;SDS011;35839;48.662;13.300;2023-02-28T07:22:47;13.40;;;7.63;;
49946;SDS011;35839;48.662;13.300;2023-02-28T07:25:20;12.57;;;7.10;;
49946;SDS011;35839;48.662;13.300;2023-02-28T07:27:45;14.33;;;8.47;;
49946;SDS011;35839;48.662;13.300;2023-02-28T07:30:11;13.43;;;8.40;;
49946;SDS011;35839;48.662;13.300;2023-02-28T07:32:37;11.83;;;7.33;;
49946;SDS011;35839;48.662;13.300;2023-02-28T07:35:02;12.80;;;7.43;;
49946;SDS011;35839;48.662;13.300;2023-02-28T07:37:28;13.00;;;7.40;;
49946;SDS011;35839;48.662;13.300;2023-02-28T07:39:56;15.50;;;7.77;;
49946;SDS011;35839;48.662;13.300;2023-02-28T07:42:22;17.17;;;8.20;;
49946;SDS011;35839;48.662;13.300;2023-02-28T07:44:47;12.20;;;7.70;;
49946;SDS011;35839;48.662;13.300;2023-02-28T07:47:12;15.40;;;7.33;;
49946;SDS011;35839;48.662;13.300;2023-02-28T07:49:38;17.60;;;7.87;;
49946;SDS011;35839;48.662;13.300;2023-02-28T07:52:05;16.77;;;8.07;;
49946;SDS011;35839;48.662;13.300;2023-02-28T07:54:31;12.73;;;7.70;;
49946;SDS011;35839;48.662;13.300;2023-02-28T07:56:56;17.20;;;7.73;;
49946;SDS011;35839;48.662;13.300;2023-02-28T07:59:22;15.23;;;7.87;;
49946;SDS011;35839;48.662;13.300;2023-02-28T08:01:47;11.30;;;7.10;;
49946;SDS011;35839;48.662;13.300;2023-02-28T08:04:15;12.90;;;8.40;;
49946;SDS011;35839;48.662;13.300;2023-02-28T08:06:41;13.77;;;6.83;;
49946;SDS011;35839;48.662;13.300;2023-02-28T08:09:06;12.83;;;7.30;;
49946;SDS011;35839;48.662;13.300;2023-02-28T08:11:32;14.50;;;7.93;;
49946;SDS011;35839;48.662;13.300;2023-02-28T08:13:57;13.70;;;7.67;;
49946;SDS011;35839;48.662;13.300;2023-02-28T08:16:22;12.60;;;7.60;;
49946;SDS011;35839;48.662;13.300;2023-02-28T08:18:51;13.03;;;7.67;;
49946;SDS011;35839;48.662;13.300;2023-02-28T08:21:17;9.73;;;5.30;;
49946;SDS011;35839;48.662;13.300;2023-02-28T08:23:43;13.37;;;7.23;;
49946;SDS011;35839;48.662;13.300;2023-02-28T08:26:09;14.07;;;7.60;;
49946;SDS011;35839;48.662;13.300;2023-02-28T08:28:34;11.77;;;7.10;;
49946;SDS011;35839;48.662;13.300;2023-02-28T08:30:59;11.33;;;6.47;;
49946;SDS011;35839;48.662;13.300;2023-02-28T08:33:25;11.67;;;7.13;;
49946;SDS011;35839;48.662;13.300;2023-02-28T08:35:53;12.70;;;6.53;;
49946;SDS011;35839;48.662;13.300;2023-02-28T08:38:19;13.70;;;6.33;;
49946;SDS011;35839;48.662;13.300;2023-02-28T08:40:44;11.57;;;6.30;;
49946;SDS011;35839;48.662;13.300;2023-02-28T08:43:09;12.20;;;7.17;;
49946;SDS011;35839;48.662;13.300;2023-02-28T08:45:35;9.63;;;6.47;;
49946;SDS011;35839;48.662;13.300;2023-02-28T08:48:00;12.60;;;6.30;;
49946;SDS011;35839;48.662;13.300;2023-02-28T08:50:25;13.00;;;6.73;;
49946;SDS011;35839;48.662;13.300;2023-02-28T08:52:51;10.73;;;6.53;;
49946;SDS011;35839;48.662;13.300;2023-02-28T08:55:16;9.73;;;6.47;;
49946;SDS011;35839;48.662;13.300;2023-02-28T08:57:41;11.53;;;6.80;;
49946;SDS011;35839;48.662;13.300;2023-02-28T09:00:07;15.17;;;7.20;;
49946;SDS011;35839;48.662;13.300;2023-02-28T09:02:32;14.97;;;7.20;;
49946;SDS011;35839;48.662;13.300;2023-02-28T09:04:58;24.67;;;7.33;;
49946;SDS011;35839;48.662;13.300;2023-02-28T09:07:24;11.83;;;6.43;;
49946;SDS011;35839;48.662;13.300;2023-02-28T09:09:49;12.90;;;6.37;;
49946;SDS011;35839;48.662;13.300;2023-02-28T09:12:23;13.07;;;6.53;;
49946;SDS011;35839;48.662;13.300;2023-02-28T09:14:49;13.77;;;7.17;;
49946;SDS011;35839;48.662;13.300;2023-02-28T09:17:14;10.53;;;7.33;;
49946;SDS011;35839;48.662;13.300;2023-02-28T09:19:40;10.90;;;7.47;;
49946;SDS011;35839;48.662;13.300;2023-02-28T09:22:06;11.63;;;6.87;;
49946;SDS011;35839;48.662;13.300;2023-02-28T09:24:31;10.83;;;6.60;;
49946;SDS011;35839;48.662;13.300;2023-02-28T09:26:56;11.50;;;6.07;;
49946;SDS011;35839;48.662;13.300;2023-02-28T09:29:22;10.57;;;6.80;;
49946;SDS011;35839;48.662;13.300;2023-02-28T09:31:47;13.03;;;6.70;;
49946;SDS011;35839;48.662;13.300;2023-02-28T09:34:12;16.50;;;7.20;;
49946;SDS011;35839;48.662;13.300;2023-02-28T09:36:37;11.93;;;7.00;;
49946;SDS011;35839;48.662;13.300;2023-02-28T09:39:03;12.67;;;7.97;;
49946;SDS011;35839;48.662;13.300;2023-02-28T09:41:29;14.97;;;7.77;;
49946;SDS011;35839;48.662;13.300;2023-02-28T09:44:05;13.23;;;7.83;;
49946;SDS011;35839;48.662;13.300;2023-02-28T09:46:37;12.20;;;7.47;;
49946;SDS011;35839;48.662;13.300;2023-02-28T09:49:06;12.00;;;6.80;;
49946;SDS011;35839;48.662;13.300;2023-02-28T09:54:13;16.97;;;9.00;;
49946;SDS011;35839;48.662;13.300;2023-02-28T09:56:45;14.73;;;8.37;;
49946;SDS011;35839;48.662;13.300;2023-02-28T10:02:03;13.17;;;7.70;;
49946;SDS011;35839;48.662;13.300;2023-02-28T10:07:37;11.43;;;6.90;;
49946;SDS011;35839;48.662;13.300;2023-02-28T10:10:32;17.00;;;8.47;;
49946;SDS011;35839;48.662;13.300;2023-02-28T10:13:04;12.20;;;7.50;;
49946;SDS011;35839;48.662;13.300;2023-02-28T10:15:31;15.50;;;8.03;;
49946;SDS011;35839;48.662;13.300;2023-02-28T10:18:00;13.03;;;8.53;;
49946;SDS011;35839;48.662;13.300;2023-02-28T10:20:29;14.80;;;9.00;;
49946;SDS011;35839;48.662;13.300;2023-02-28T10:23:04;17.00;;;9.40;;
49946;SDS011;35839;48.662;13.300;2023-02-28T10:25:59;15.33;;;9.27;;
49946;SDS011;35839;48.662;13.300;2023-02-28T10:28:33;16.73;;;8.37;;
49946;SDS011;35839;48.662;13.300;2023-02-28T10:30:58;13.40;;;9.53;;
49946;SDS011;35839;48.662;13.300;2023-02-28T10:35:53;11.70;;;7.90;;
49946;SDS011;35839;48.662;13.300;2023-02-28T10:38:31;16.17;;;8.90;;
49946;SDS011;35839;48.662;13.300;2023-02-28T10:41:06;13.40;;;8.77;;
49946;SDS011;35839;48.662;13.300;2023-02-28T10:43:36;14.93;;;9.63;;
49946;SDS011;35839;48.662;13.300;2023-02-28T10:48:42;14.73;;;9.23;;
49946;SDS011;35839;48.662;13.300;2023-02-28T10:51:11;15.07;;;9.07;;
49946;SDS011;35839;48.662;13.300;2023-02-28T10:56:18;14.53;;;9.03;;
49946;SDS011;35839;48.662;13.300;2023-02-28T10:58:56;14.40;;;9.40;;
49946;SDS011;35839;48.662;13.300;2023-02-28T11:04:16;13.43;;;9.30;;
49946;SDS011;35839;48.662;13.300;2023-02-28T11:06:46;19.10;;;10.88;;
49946;SDS011;35839;48.662;13.300;2023-02-28T11:09:28;17.93;;;9.37;;
49946;SDS011;35839;48.662;13.300;2023-02-28T11:11:58;13.43;;;8.53;;
49946;SDS011;35839;48.662;13.300;2023-02-28T11:14:28;14.77;;;9.93;;
49946;SDS011;35839;48.662;13.300;2023-02-28T11:16:58;13.97;;;10.47;;
49946;SDS011;35839;48.662;13.300;2023-02-28T11:19:39;13.97;;;8.87;;
49946;SDS011;35839;48.662;13.300;2023-02-28T11:22:09;15.80;;;8.80;;
49946;SDS011;35839;48.662;13.300;2023-02-28T11:24:42;15.43;;;9.20;;
49946;SDS011;35839;48.662;13.300;2023-02-28T11:27:45;13.23;;;9.70;;
49946;SDS011;35839;48.662;13.300;2023-02-28T11:36:04;17.95;;;9.90;;
49946;SDS011;35839;48.662;13.300;2023-02-28T11:38:36;17.57;;;10.23;;
49946;SDS011;35839;48.662;13.300;2023-02-28T11:41:05;15.67;;;10.27;;
49946;SDS011;35839;48.662;13.300;2023-02-28T11:46:32;16.17;;;9.87;;
49946;SDS011;35839;48.662;13.300;2023-02-28T11:51:48;16.13;;;9.60;;
49946;SDS011;35839;48.662;13.300;2023-02-28T11:54:23;15.37;;;9.53;;
49946;SDS011;35839;48.662;13.300;2023-02-28T11:56:55;15.77;;;10.33;;
49946;SDS011;35839;48.662;13.300;2023-02-28T11:59:32;16.23;;;9.87;;
49946;SDS011;35839;48.662;13.300;2023-02-28T12:02:29;16.27;;;10.30;;
49946;SDS011;35839;48.662;13.300;2023-02-28T12:05:19;13.83;;;10.50;;
49946;SDS011;35839;48.662;13.300;2023-02-28T12:08:03;15.47;;;10.47;;
49946;SDS011;35839;48.662;13.300;2023-02-28T12:11:06;16.77;;;10.13;;
49946;SDS011;35839;48.662;13.300;2023-02-28T12:19:18;17.13;;;9.40;;
49946;SDS011;35839;48.662;13.300;2023-02-28T12:21:52;13.50;;;9.47;;
49946;SDS011;35839;48.662;13.300;2023-02-28T12:27:16;18.47;;;11.87;;
49946;SDS011;35839;48.662;13.300;2023-02-28T12:29:52;18.90;;;11.10;;
49946;SDS011;35839;48.662;13.300;2023-02-28T12:32:32;14.57;;;9.33;;
49946;SDS011;35839;48.662;13.300;2023-02-28T12:35:47;13.53;;;9.90;;
49946;SDS011;35839;48.662;13.300;2023-02-28T12:38:01;15.17;;;9.63;;
49946;SDS011;35839;48.662;13.300;2023-02-28T12:41:36;15.23;;;9.37;;
49946;SDS011;35839;48.662;13.300;2023-02-28T12:43:48;14.93;;;9.30;;
49946;SDS011;35839;48.662;13.300;2023-02-28T12:46:23;13.37;;;8.67;;
49946;SDS011;35839;48.662;13.300;2023-02-28T12:49:06;12.97;;;9.33;;
49946;SDS011;35839;48.662;13.300;2023-02-28T12:51:37;15.77;;;8.97;;
49946;SDS011;35839;48.662;13.300;2023-02-28T12:59:32;13.00;;;8.70;;
49946;SDS011;35839;48.662;13.300;2023-02-28T13:07:43;14.80;;;9.93;;
49946;SDS011;35839;48.662;13.300;2023-02-28T13:10:22;15.87;;;10.20;;
49946;SDS011;35839;48.662;13.300;2023-02-28T13:12:52;15.53;;;9.87;;
49946;SDS011;35839;48.662;13.300;2023-02-28T13:15:26;15.73;;;10.73;;
49946;SDS011;35839;48.662;13.300;2023-02-28T13:17:54;14.33;;;10.30;;
49946;SDS011;35839;48.662;13.300;2023-02-28T13:20:23;16.30;;;10.95;;
49946;SDS011;35839;48.662;13.300;2023-02-28T13:22:58;15.60;;;10.00;;
49946;SDS011;35839;48.662;13.300;2023-02-28T13:27:57;18.13;;;10.77;;
49946;SDS011;35839;48.662;13.300;2023-02-28T13:33:34;19.73;;;10.67;;
49946;SDS011;35839;48.662;13.300;2023-02-28T13:36:07;15.63;;;10.40;;
49946;SDS011;35839;48.662;13.300;2023-02-28T13:38:46;15.00;;;10.23;;
49946;SDS011;35839;48.662;13.300;2023-02-28T13:44:04;16.93;;;11.00;;
49946;SDS011;35839;48.662;13.300;2023-02-28T13:47:13;14.47;;;11.00;;
49946;SDS011;35839;48.662;13.300;2023-02-28T13:49:25;14.77;;;9.87;;
49946;SDS011;35839;48.662;13.300;2023-02-28T13:52:02;14.83;;;10.87;;
49946;SDS011;35839;48.662;13.300;2023-02-28T14:06:19;15.40;;;9.80;;
49946;SDS011;35839;48.662;13.300;2023-02-28T14:09:30;14.30;;;10.07;;
49946;SDS011;35839;48.662;13.300;2023-02-28T14:11:44;15.90;;;10.73;;
49946;SDS011;35839;48.662;13.300;2023-02-28T14:14:53;16.10;;;11.57;;
49946;SDS011;35839;48.662;13.300;2023-02-28T14:17:02;15.97;;;10.93;;
49946;SDS011;35839;48.662;13.300;2023-02-28T14:19:30;17.50;;;11.30;;
49946;SDS011;35839;48.662;13.300;2023-02-28T14:35:43;18.27;;;11.97;;
49946;SDS011;35839;48.662;13.300;2023-02-28T14:38:35;16.57;;;11.23;;
49946;SDS011;35839;48.662;13.300;2023-02-28T14:41:29;18.08;;;11.07;;
49946;SDS011;35839;48.662;13.300;2023-02-28T14:43:56;16.40;;;12.47;;
49946;SDS011;35839;48.662;13.300;2023-02-28T14:46:25;19.83;;;12.43;;
49946;SDS011;35839;48.662;13.300;2023-02-28T14:48:53;18.33;;;11.77;;
49946;SDS011;35839;48.662;13.300;2023-02-28T14:51:20;21.23;;;13.10;;
49946;SDS011;35839;48.662;13.300;2023-02-28T14:53:49;19.13;;;12.40;;
49946;SDS011;35839;48.662;13.300;2023-02-28T14:56:19;17.67;;;11.65;;
49946;SDS011;35839;48.662;13.300;2023-02-28T14:58:56;17.83;;;12.27;;
49946;SDS011;35839;48.662;13.300;2023-02-28T15:01:22;16.67;;;11.47;;
49946;SDS011;35839;48.662;13.300;2023-02-28T15:03:57;18.53;;;12.00;;
49946;SDS011;35839;48.662;13.300;2023-02-28T15:06:23;19.77;;;12.33;;
49946;SDS011;35839;48.662;13.300;2023-02-28T15:09:06;17.73;;;12.60;;
49946;SDS011;35839;48.662;13.300;2023-02-28T15:11:32;17.67;;;12.33;;
49946;SDS011;35839;48.662;13.300;2023-02-28T15:13:58;19.90;;;12.90;;
49946;SDS011;35839;48.662;13.300;2023-02-28T15:19:04;21.83;;;13.17;;
49946;SDS011;35839;48.662;13.300;2023-02-28T15:21:53;18.57;;;12.40;;
49946;SDS011;35839;48.662;13.300;2023-02-28T15:24:34;18.10;;;12.80;;
49946;SDS011;35839;48.662;13.300;2023-02-28T15:27:15;21.73;;;14.20;;
49946;SDS011;35839;48.662;13.300;2023-02-28T15:29:48;18.87;;;12.40;;
49946;SDS011;35839;48.662;13.300;2023-02-28T15:32:37;22.27;;;13.10;;
49946;SDS011;35839;48.662;13.300;2023-02-28T15:35:17;21.47;;;14.30;;
49946;SDS011;35839;48.662;13.300;2023-02-28T15:38:14;20.80;;;15.07;;
49946;SDS011;35839;48.662;13.300;2023-02-28T15:40:51;19.23;;;13.07;;
49946;SDS011;35839;48.662;13.300;2023-02-28T15:43:24;20.67;;;13.90;;
49946;SDS011;35839;48.662;13.300;2023-02-28T15:50:47;19.60;;;13.00;;
49946;SDS011;35839;48.662;13.300;2023-02-28T15:53:15;12.60;;;9.93;;
49946;SDS011;35839;48.662;13.300;2023-02-28T15:55:58;20.53;;;14.47;;
49946;SDS011;35839;48.662;13.300;2023-02-28T15:58:26;20.58;;;14.05;;
49946;SDS011;35839;48.662;13.300;2023-02-28T16:01:05;19.70;;;12.87;;
49946;SDS011;35839;48.662;13.300;2023-02-28T16:03:52;19.38;;;12.18;;
49946;SDS011;35839;48.662;13.300;2023-02-28T16:08:51;19.17;;;12.87;;
49946;SDS011;35839;48.662;13.300;2023-02-28T16:11:18;22.90;;;12.93;;
49946;SDS011;35839;48.662;13.300;2023-02-28T16:13:45;22.40;;;13.33;;
49946;SDS011;35839;48.662;13.300;2023-02-28T16:16:14;19.13;;;13.03;;
49946;SDS011;35839;48.662;13.300;2023-02-28T16:18:41;21.93;;;13.83;;
49946;SDS011;35839;48.662;13.300;2023-02-28T16:21:08;23.67;;;13.93;;
49946;SDS011;35839;48.662;13.300;2023-02-28T16:23:33;19.03;;;13.30;;
49946;SDS011;35839;48.662;13.300;2023-02-28T16:25:59;19.47;;;12.90;;
49946;SDS011;35839;48.662;13.300;2023-02-28T16:28:25;23.50;;;14.33;;
49946;SDS011;35839;48.662;13.300;2023-02-28T16:30:57;20.90;;;12.97;;
49946;SDS011;35839;48.662;13.300;2023-02-28T16:33:25;19.00;;;14.07;;
49946;SDS011;35839;48.662;13.300;2023-02-28T16:35:51;20.93;;;12.97;;
49946;SDS011;35839;48.662;13.300;2023-02-28T16:38:16;21.93;;;12.80;;
49946;SDS011;35839;48.662;13.300;2023-02-28T16:40:42;21.43;;;13.50;;
49946;SDS011;35839;48.662;13.300;2023-02-28T16:43:08;19.13;;;13.17;;
49946;SDS011;35839;48.662;13.300;2023-02-28T16:45:42;21.80;;;12.87;;
49946;SDS011;35839;48.662;13.300;2023-02-28T16:48:11;20.73;;;12.90;;
49946;SDS011;35839;48.662;13.300;2023-02-28T16:50:39;22.47;;;13.50;;
49946;SDS011;35839;48.662;13.300;2023-02-28T16:53:04;23.30;;;12.53;;
49946;SDS011;35839;48.662;13.300;2023-02-28T16:55:29;22.63;;;14.47;;
49946;SDS011;35839;48.662;13.300;2023-02-28T16:57:58;22.00;;;12.83;;
49946;SDS011;35839;48.662;13.300;2023-02-28T17:00:25;19.10;;;14.13;;
49946;SDS011;35839;48.662;13.300;2023-02-28T17:02:52;23.90;;;13.77;;
49946;SDS011;35839;48.662;13.300;2023-02-28T17:05:18;18.43;;;12.27;;
49946;SDS011;35839;48.662;13.300;2023-02-28T17:07:44;19.73;;;12.87;;
49946;SDS011;35839;48.662;13.300;2023-02-28T17:10:18;24.40;;;14.00;;
49946;SDS011;35839;48.662;13.300;2023-02-28T17:12:46;21.67;;;13.07;;
49946;SDS011;35839;48.662;13.300;2023-02-28T17:15:12;20.37;;;13.43;;
49946;SDS011;35839;48.662;13.300;2023-02-28T17:17:39;22.17;;;13.73;;
49946;SDS011;35839;48.662;13.300;2023-02-28T17:20:06;23.50;;;13.90;;
49946;SDS011;35839;48.662;13.300;2023-02-28T17:22:36;20.80;;;13.00;;
49946;SDS011;35839;48.662;13.300;2023-02-28T17:25:01;21.70;;;13.43;;
49946;SDS011;35839;48.662;13.300;2023-02-28T17:27:27;20.27;;;12.90;;
49946;SDS011;35839;48.662;13.300;2023-02-28T17:29:52;20.70;;;12.90;;
49946;SDS011;35839;48.662;13.300;2023-02-28T17:32:17;22.30;;;12.83;;
49946;SDS011;35839;48.662;13.300;2023-02-28T17:34:43;21.33;;;12.90;;
49946;SDS011;35839;48.662;13.300;2023-02-28T17:37:09;23.33;;;14.57;;
49946;SDS011;35839;48.662;13.300;2023-02-28T17:39:34;22.33;;;14.07;;
49946;SDS011;35839;48.662;13.300;2023-02-28T17:42:00;23.83;;;13.73;;
49946;SDS011;35839;48.662;13.300;2023-02-28T17:44:25;23.60;;;14.27;;
49946;SDS011;35839;48.662;13.300;2023-02-28T17:46:50;22.53;;;14.13;;
49946;SDS011;35839;48.662;13.300;2023-02-28T17:49:18;23.83;;;14.17;;
49946;SDS011;35839;48.662;13.300;2023-02-28T17:51:44;23.10;;;13.47;;
49946;SDS011;35839;48.662;13.300;2023-02-28T17:54:10;20.03;;;12.67;;
49946;SDS011;35839;48.662;13.300;2023-02-28T17:56:36;23.60;;;14.50;;
49946;SDS011;35839;48.662;13.300;2023-02-28T17:59:01;23.83;;;14.00;;
49946;SDS011;35839;48.662;13.300;2023-02-28T18:01:26;20.33;;;13.57;;
49946;SDS011;35839;48.662;13.300;2023-02-28T18:03:52;23.77;;;13.73;;
49946;SDS011;35839;48.662;13.300;2023-02-28T18:06:21;22.50;;;14.90;;
49946;SDS011;35839;48.662;13.300;2023-02-28T18:08:49;21.57;;;13.93;;
49946;SDS011;35839;48.662;13.300;2023-02-28T18:11:16;22.07;;;12.50;;
49946;SDS011;35839;48.662;13.300;2023-02-28T18:13:43;23.10;;;13.33;;
49946;SDS011;35839;48.662;13.300;2023-02-28T18:16:10;22.93;;;14.50;;
49946;SDS011;35839;48.662;13.300;2023-02-28T18:18:35;21.10;;;13.23;;
49946;SDS011;35839;48.662;13.300;2023-02-28T18:21:03;20.57;;;12.57;;
49946;SDS011;35839;48.662;13.300;2023-02-28T18:23:30;21.10;;;13.87;;
49946;SDS011;35839;48.662;13.300;2023-02-28T18:25:55;25.73;;;15.10;;
49946;SDS011;35839;48.662;13.300;2023-02-28T18:28:20;18.87;;;13.03;;
49946;SDS011;35839;48.662;13.300;2023-02-28T18:30:45;22.40;;;12.77;;
49946;SDS011;35839;48.662;13.300;2023-02-28T18:33:11;20.20;;;12.13;;
49946;SDS011;35839;48.662;13.300;2023-02-28T18:35:36;21.73;;;13.30;;
49946;SDS011;35839;48.662;13.300;2023-02-28T18:38:04;21.37;;;13.53;;
49946;SDS011;35839;48.662;13.300;2023-02-28T18:40:31;20.52;;;14.43;;
49946;SDS011;35839;48.662;13.300;2023-02-28T18:42:57;18.93;;;12.27;;
49946;SDS011;35839;48.662;13.300;2023-02-28T18:45:22;23.40;;;13.67;;
49946;SDS011;35839;48.662;13.300;2023-02-28T18:47:47;25.17;;;13.63;;
49946;SDS011;35839;48.662;13.300;2023-02-28T18:50:13;20.83;;;12.87;;
49946;SDS011;35839;48.662;13.300;2023-02-28T18:52:38;23.87;;;12.63;;
49946;SDS011;35839;48.662;13.300;2023-02-28T18:55:03;26.10;;;14.73;;
49946;SDS011;35839;48.662;13.300;2023-02-28T18:57:31;19.80;;;12.70;;
49946;SDS011;35839;48.662;13.300;2023-02-28T18:59:57;20.00;;;13.27;;
49946;SDS011;35839;48.662;13.300;2023-02-28T19:02:22;21.23;;;14.17;;
49946;SDS011;35839;48.662;13.300;2023-02-28T19:04:47;22.10;;;13.57;;
49946;SDS011;35839;48.662;13.300;2023-02-28T19:07:13;20.27;;;14.07;;
49946;SDS011;35839;48.662;13.300;2023-02-28T19:09:38;21.20;;;13.57;;
49946;SDS011;35839;48.662;13.300;2023-02-28T19:12:04;20.63;;;12.90;;
49946;SDS011;35839;48.662;13.300;2023-02-28T19:14:29;21.50;;;14.73;;
49946;SDS011;35839;48.662;13.300;2023-02-28T19:16:54;23.87;;;12.47;;
49946;SDS011;35839;48.662;13.300;2023-02-28T19:19:20;18.20;;;13.10;;
49946;SDS011;35839;48.662;13.300;2023-02-28T19:21:45;26.47;;;14.40;;
49946;SDS011;35839;48.662;13.300;2023-02-28T19:24:10;24.07;;;15.07;;
49946;SDS011;35839;48.662;13.300;2023-02-28T19:26:36;21.50;;;13.20;;
49946;SDS011;35839;48.662;13.300;2023-02-28T19:29:02;19.23;;;13.70;;
49946;SDS011;35839;48.662;13.300;2023-02-28T19:31:29;25.13;;;14.50;;
49946;SDS011;35839;48.662;13.300;2023-02-28T19:33:54;20.43;;;13.53;;
49946;SDS011;35839;48.662;13.300;2023-02-28T19:36:20;22.73;;;13.37;;
49946;SDS011;35839;48.662;13.300;2023-02-28T19:38:45;21.80;;;13.67;;
49946;SDS011;35839;48.662;13.300;2023-02-28T19:41:12;21.23;;;13.33;;
49946;SDS011;35839;48.662;13.300;2023-02-28T19:43:38;21.17;;;13.57;;
49946;SDS011;35839;48.662;13.300;2023-02-28T19:46:04;22.97;;;14.13;;
49946;SDS011;35839;48.662;13.300;2023-02-28T19:48:30;20.90;;;13.67;;
49946;SDS011;35839;48.662;13.300;2023-02-28T19:50:57;21.40;;;14.07;;
49946;SDS011;35839;48.662;13.300;2023-02-28T19:53:24;16.87;;;12.90;;
49946;SDS011;35839;48.662;13.300;2023-02-28T19:55:50;19.83;;;13.20;;
49946;SDS011;35839;48.662;13.300;2023-02-28T19:58:17;21.13;;;13.90;;
49946;SDS011;35839;48.662;13.300;2023-02-28T20:00:43;21.03;;;13.83;;
49946;SDS011;35839;48.662;13.300;2023-02-28T20:03:08;22.70;;;14.47;;
49946;SDS011;35839;48.662;13.300;2023-02-28T20:05:34;19.70;;;13.03;;
49946;SDS011;35839;48.662;13.300;2023-02-28T20:07:59;23.00;;;14.13;;
49946;SDS011;35839;48.662;13.300;2023-02-28T20:10:25;21.33;;;13.87;;
49946;SDS011;35839;48.662;13.300;2023-02-28T20:12:50;23.47;;;13.60;;
49946;SDS011;35839;48.662;13.300;2023-02-28T20:15:15;19.73;;;13.23;;
49946;SDS011;35839;48.662;13.300;2023-02-28T20:17:41;20.93;;;13.77;;
49946;SDS011;35839;48.662;13.300;2023-02-28T20:20:07;25.17;;;13.80;;
49946;SDS011;35839;48.662;13.300;2023-02-28T20:22:35;19.50;;;13.52;;
49946;SDS011;35839;48.662;13.300;2023-02-28T20:25:01;23.00;;;13.80;;
49946;SDS011;35839;48.662;13.300;2023-02-28T20:27:27;23.83;;;13.27;;
49946;SDS011;35839;48.662;13.300;2023-02-28T20:29:53;22.10;;;13.87;;
49946;SDS011;35839;48.662;13.300;2023-02-28T20:32:18;19.60;;;13.23;;
49946;SDS011;35839;48.662;13.300;2023-02-28T20:34:44;23.27;;;15.27;;
49946;SDS011;35839;48.662;13.300;2023-02-28T20:37:09;21.23;;;13.80;;
49946;SDS011;35839;48.662;13.300;2023-02-28T20:39:35;21.10;;;14.27;;
49946;SDS011;35839;48.662;13.300;2023-02-28T20:42:01;23.00;;;13.00;;
49946;SDS011;35839;48.662;13.300;2023-02-28T20:44:26;22.13;;;13.53;;
49946;SDS011;35839;48.662;13.300;2023-02-28T20:46:51;22.07;;;13.80;;
49946;SDS011;35839;48.662;13.300;2023-02-28T20:49:17;21.07;;;14.70;;
49946;SDS011;35839;48.662;13.300;2023-02-28T20:51:42;22.40;;;14.00;;
49946;SDS011;35839;48.662;13.300;2023-02-28T20:54:08;21.53;;;13.37;;
49946;SDS011;35839;48.662;13.300;2023-02-28T20:56:35;22.37;;;14.03;;
49946;SDS011;35839;48.662;13.300;2023-02-28T20:59:01;22.10;;;12.97;;
49946;SDS011;35839;48.662;13.300;2023-02-28T21:01:27;24.73;;;13.83;;
49946;SDS011;35839;48.662;13.300;2023-02-28T21:03:55;22.67;;;13.17;;
49946;SDS011;35839;48.662;13.300;2023-02-28T21:06:23;22.00;;;13.97;;
49946;SDS011;35839;48.662;13.300;2023-02-28T21:08:50;22.17;;;14.43;;
49946;SDS011;35839;48.662;13.300;2023-02-28T21:11:20;19.80;;;12.60;;
49946;SDS011;35839;48.662;13.300;2023-02-28T21:13:48;20.10;;;12.87;;
49946;SDS011;35839;48.662;13.300;2023-02-28T21:16:16;23.70;;;13.13;;
49946;SDS011;35839;48.662;13.300;2023-02-28T21:18:44;21.52;;;13.32;;
49946;SDS011;35839;48.662;13.300;2023-02-28T21:21:12;20.50;;;13.03;;
49946;SDS011;35839;48.662;13.300;2023-02-28T21:23:39;20.03;;;12.77;;
49946;SDS011;35839;48.662;13.300;2023-02-28T21:26:05;18.90;;;12.87;;
49946;SDS011;35839;48.662;13.300;2023-02-28T21:28:33;20.17;;;13.50;;
49946;SDS011;35839;48.662;13.300;2023-02-28T21:31:02;23.37;;;14.03;;
49946;SDS011;35839;48.662;13.300;2023-02-28T21:33:32;20.17;;;13.07;;
49946;SDS011;35839;48.662;13.300;2023-02-28T21:36:06;25.63;;;14.20;;